sensor_id;sensor_type;location;lat;lon;timestamp;P1;durP1;ratioP1;P2;durP2;ratioP2
50225;SDS011;36113;50.742;6.432;2022-07-18T00:02:17;7.73;;;1.70;;
50225;SDS011;36113;50.742;6.432;2022-07-18T00:04:43;5.20;;;2.07;;
50225;SDS011;36113;50.742;6.432;2022-07-18T00:07:09;6.57;;;2.17;;
50225;SDS011;36113;50.742;6.432;2022-07-18T00:09:38;3.72;;;2.00;;
50225;SDS011;36113;50.742;6.432;2022-07-18T00:12:04;2.55;;;1.55;;
50225;SDS011;36113;50.742;6.432;2022-07-18T00:14:31;3.58;;;1.95;;
50225;SDS011;36113;50.742;6.432;2022-07-18T00:16:57;8.10;;;2.10;;
50225;SDS011;36113;50.742;6.432;2022-07-18T00:19:24;2.55;;;1.70;;
50225;SDS011;36113;50.742;6.432;2022-07-18T00:21:50;3.85;;;1.90;;
50225;SDS011;36113;50.742;6.432;2022-07-18T00:24:15;4.87;;;2.00;;
50225;SDS011;36113;50.742;6.432;2022-07-18T00:26:40;4.67;;;1.47;;
50225;SDS011;36113;50.742;6.432;2022-07-18T00:29:06;2.30;;;1.60;;
50225;SDS011;36113;50.742;6.432;2022-07-18T00:31:31;1.80;;;1.70;;
50225;SDS011;36113;50.742;6.432;2022-07-18T00:33:57;2.28;;;1.45;;
50225;SDS011;36113;50.742;6.432;2022-07-18T00:36:23;7.47;;;2.17;;
50225;SDS011;36113;50.742;6.432;2022-07-18T00:38:48;5.93;;;2.17;;
50225;SDS011;36113;50.742;6.432;2022-07-18T00:41:16;4.47;;;1.90;;
50225;SDS011;36113;50.742;6.432;2022-07-18T00:43:42;11.52;;;1.80;;
50225;SDS011;36113;50.742;6.432;2022-07-18T00:46:08;2.58;;;1.75;;
50225;SDS011;36113;50.742;6.432;2022-07-18T00:48:36;4.10;;;1.65;;
50225;SDS011;36113;50.742;6.432;2022-07-18T00:51:02;1.70;;;1.60;;
50225;SDS011;36113;50.742;6.432;2022-07-18T00:53:27;6.23;;;1.70;;
50225;SDS011;36113;50.742;6.432;2022-07-18T00:55:53;6.83;;;2.10;;
50225;SDS011;36113;50.742;6.432;2022-07-18T00:58:19;4.43;;;1.63;;
50225;SDS011;36113;50.742;6.432;2022-07-18T01:00:44;2.13;;;1.87;;
50225;SDS011;36113;50.742;6.432;2022-07-18T01:03:29;3.70;;;2.00;;
50225;SDS011;36113;50.742;6.432;2022-07-18T01:05:54;2.03;;;1.30;;
50225;SDS011;36113;50.742;6.432;2022-07-18T01:08:20;3.27;;;1.90;;
50225;SDS011;36113;50.742;6.432;2022-07-18T01:10:45;4.60;;;1.80;;
50225;SDS011;36113;50.742;6.432;2022-07-18T01:13:10;2.73;;;1.80;;
50225;SDS011;36113;50.742;6.432;2022-07-18T01:15:36;5.03;;;1.83;;
50225;SDS011;36113;50.742;6.432;2022-07-18T01:18:02;2.37;;;1.63;;
50225;SDS011;36113;50.742;6.432;2022-07-18T01:20:28;3.25;;;2.08;;
50225;SDS011;36113;50.742;6.432;2022-07-18T01:22:55;2.05;;;1.85;;
50225;SDS011;36113;50.742;6.432;2022-07-18T01:25:21;3.43;;;1.50;;
50225;SDS011;36113;50.742;6.432;2022-07-18T01:27:46;4.70;;;1.80;;
50225;SDS011;36113;50.742;6.432;2022-07-18T01:30:12;5.47;;;1.77;;
50225;SDS011;36113;50.742;6.432;2022-07-18T01:32:38;1.67;;;1.47;;
50225;SDS011;36113;50.742;6.432;2022-07-18T01:35:03;4.70;;;1.70;;
50225;SDS011;36113;50.742;6.432;2022-07-18T01:37:29;5.10;;;1.70;;
50225;SDS011;36113;50.742;6.432;2022-07-18T01:39:55;5.33;;;1.63;;
50225;SDS011;36113;50.742;6.432;2022-07-18T01:42:20;5.17;;;2.03;;
50225;SDS011;36113;50.742;6.432;2022-07-18T01:44:45;3.67;;;1.60;;
50225;SDS011;36113;50.742;6.432;2022-07-18T01:47:11;3.37;;;1.47;;
50225;SDS011;36113;50.742;6.432;2022-07-18T01:49:37;1.83;;;1.67;;
50225;SDS011;36113;50.742;6.432;2022-07-18T01:52:03;3.65;;;2.00;;
50225;SDS011;36113;50.742;6.432;2022-07-18T01:54:30;2.37;;;1.80;;
50225;SDS011;36113;50.742;6.432;2022-07-18T01:56:57;4.25;;;1.65;;
50225;SDS011;36113;50.742;6.432;2022-07-18T01:59:24;5.32;;;1.63;;
50225;SDS011;36113;50.742;6.432;2022-07-18T02:01:50;3.40;;;1.80;;
50225;SDS011;36113;50.742;6.432;2022-07-18T02:04:15;3.43;;;1.87;;
50225;SDS011;36113;50.742;6.432;2022-07-18T02:06:41;5.93;;;1.70;;
50225;SDS011;36113;50.742;6.432;2022-07-18T02:09:07;5.45;;;1.52;;
50225;SDS011;36113;50.742;6.432;2022-07-18T02:11:34;5.90;;;1.90;;
50225;SDS011;36113;50.742;6.432;2022-07-18T02:14:00;3.88;;;2.00;;
50225;SDS011;36113;50.742;6.432;2022-07-18T02:18:53;1.67;;;1.23;;
50225;SDS011;36113;50.742;6.432;2022-07-18T02:21:19;1.80;;;1.70;;
50225;SDS011;36113;50.742;6.432;2022-07-18T02:23:44;3.07;;;1.77;;
50225;SDS011;36113;50.742;6.432;2022-07-18T02:26:10;2.40;;;1.40;;
50225;SDS011;36113;50.742;6.432;2022-07-18T02:28:36;4.43;;;1.73;;
50225;SDS011;36113;50.742;6.432;2022-07-18T02:31:03;2.13;;;1.40;;
50225;SDS011;36113;50.742;6.432;2022-07-18T02:35:54;4.93;;;1.70;;
50225;SDS011;36113;50.742;6.432;2022-07-18T02:38:19;2.67;;;1.63;;
50225;SDS011;36113;50.742;6.432;2022-07-18T02:40:44;5.00;;;2.00;;
50225;SDS011;36113;50.742;6.432;2022-07-18T02:43:10;1.87;;;1.40;;
50225;SDS011;36113;50.742;6.432;2022-07-18T02:45:35;2.60;;;1.80;;
50225;SDS011;36113;50.742;6.432;2022-07-18T02:48:01;3.33;;;1.90;;
50225;SDS011;36113;50.742;6.432;2022-07-18T02:50:26;3.23;;;1.77;;
50225;SDS011;36113;50.742;6.432;2022-07-18T02:52:52;2.43;;;1.63;;
50225;SDS011;36113;50.742;6.432;2022-07-18T02:55:17;3.07;;;1.60;;
50225;SDS011;36113;50.742;6.432;2022-07-18T02:57:43;3.70;;;1.60;;
50225;SDS011;36113;50.742;6.432;2022-07-18T03:00:09;1.85;;;1.38;;
50225;SDS011;36113;50.742;6.432;2022-07-18T03:02:36;3.72;;;1.38;;
50225;SDS011;36113;50.742;6.432;2022-07-18T03:05:03;1.98;;;1.40;;
50225;SDS011;36113;50.742;6.432;2022-07-18T03:07:29;1.35;;;1.30;;
50225;SDS011;36113;50.742;6.432;2022-07-18T03:09:54;2.63;;;1.50;;
50225;SDS011;36113;50.742;6.432;2022-07-18T03:12:20;2.43;;;1.33;;
50225;SDS011;36113;50.742;6.432;2022-07-18T03:14:45;2.20;;;1.37;;
50225;SDS011;36113;50.742;6.432;2022-07-18T03:17:11;3.60;;;1.40;;
50225;SDS011;36113;50.742;6.432;2022-07-18T03:19:36;2.40;;;1.27;;
50225;SDS011;36113;50.742;6.432;2022-07-18T03:22:02;3.07;;;1.07;;
50225;SDS011;36113;50.742;6.432;2022-07-18T03:24:28;1.95;;;1.33;;
50225;SDS011;36113;50.742;6.432;2022-07-18T03:26:53;1.33;;;0.90;;
50225;SDS011;36113;50.742;6.432;2022-07-18T03:29:19;2.87;;;1.33;;
50225;SDS011;36113;50.742;6.432;2022-07-18T03:31:44;1.30;;;1.07;;
50225;SDS011;36113;50.742;6.432;2022-07-18T03:34:10;1.90;;;1.40;;
50225;SDS011;36113;50.742;6.432;2022-07-18T03:36:35;0.80;;;0.80;;
50225;SDS011;36113;50.742;6.432;2022-07-18T03:39:01;1.10;;;1.00;;
50225;SDS011;36113;50.742;6.432;2022-07-18T03:41:27;1.98;;;0.80;;
50225;SDS011;36113;50.742;6.432;2022-07-18T03:43:52;1.33;;;0.83;;
50225;SDS011;36113;50.742;6.432;2022-07-18T03:46:17;1.67;;;0.90;;
50225;SDS011;36113;50.742;6.432;2022-07-18T03:48:43;1.77;;;0.67;;
50225;SDS011;36113;50.742;6.432;2022-07-18T03:51:08;4.63;;;0.80;;
50225;SDS011;36113;50.742;6.432;2022-07-18T03:53:33;1.20;;;1.10;;
50225;SDS011;36113;50.742;6.432;2022-07-18T03:55:59;1.20;;;1.20;;
50225;SDS011;36113;50.742;6.432;2022-07-18T03:58:24;1.47;;;1.37;;
50225;SDS011;36113;50.742;6.432;2022-07-18T04:00:50;1.23;;;0.90;;
50225;SDS011;36113;50.742;6.432;2022-07-18T04:03:15;1.27;;;0.90;;
50225;SDS011;36113;50.742;6.432;2022-07-18T04:05:42;2.13;;;1.00;;
50225;SDS011;36113;50.742;6.432;2022-07-18T04:08:08;1.80;;;1.20;;
50225;SDS011;36113;50.742;6.432;2022-07-18T04:10:33;2.67;;;1.00;;
50225;SDS011;36113;50.742;6.432;2022-07-18T04:12:59;1.37;;;1.20;;
50225;SDS011;36113;50.742;6.432;2022-07-18T04:15:25;1.40;;;1.20;;
50225;SDS011;36113;50.742;6.432;2022-07-18T04:17:51;2.28;;;0.90;;
50225;SDS011;36113;50.742;6.432;2022-07-18T04:20:17;1.07;;;0.80;;
50225;SDS011;36113;50.742;6.432;2022-07-18T04:22:48;2.40;;;1.23;;
50225;SDS011;36113;50.742;6.432;2022-07-18T04:25:18;1.20;;;1.05;;
50225;SDS011;36113;50.742;6.432;2022-07-18T04:27:45;1.00;;;0.80;;
50225;SDS011;36113;50.742;6.432;2022-07-18T04:30:11;1.50;;;0.87;;
50225;SDS011;36113;50.742;6.432;2022-07-18T04:32:37;1.95;;;0.93;;
50225;SDS011;36113;50.742;6.432;2022-07-18T04:35:03;2.33;;;1.10;;
50225;SDS011;36113;50.742;6.432;2022-07-18T04:37:30;1.10;;;1.10;;
50225;SDS011;36113;50.742;6.432;2022-07-18T04:42:21;2.92;;;0.90;;
50225;SDS011;36113;50.742;6.432;2022-07-18T04:44:47;1.60;;;1.20;;
50225;SDS011;36113;50.742;6.432;2022-07-18T04:47:12;2.07;;;1.47;;
50225;SDS011;36113;50.742;6.432;2022-07-18T04:49:37;5.60;;;0.87;;
50225;SDS011;36113;50.742;6.432;2022-07-18T04:52:03;4.00;;;1.00;;
50225;SDS011;36113;50.742;6.432;2022-07-18T04:54:28;5.00;;;1.17;;
50225;SDS011;36113;50.742;6.432;2022-07-18T04:56:54;1.67;;;0.90;;
50225;SDS011;36113;50.742;6.432;2022-07-18T04:59:19;1.80;;;0.90;;
50225;SDS011;36113;50.742;6.432;2022-07-18T05:01:44;1.67;;;1.07;;
50225;SDS011;36113;50.742;6.432;2022-07-18T05:04:10;3.87;;;1.10;;
50225;SDS011;36113;50.742;6.432;2022-07-18T05:06:35;0.90;;;0.90;;
50225;SDS011;36113;50.742;6.432;2022-07-18T05:09:00;1.67;;;1.10;;
50225;SDS011;36113;50.742;6.432;2022-07-18T05:11:26;1.23;;;0.60;;
50225;SDS011;36113;50.742;6.432;2022-07-18T05:13:51;1.30;;;0.83;;
50225;SDS011;36113;50.742;6.432;2022-07-18T05:16:16;1.00;;;1.00;;
50225;SDS011;36113;50.742;6.432;2022-07-18T05:18:42;1.13;;;0.90;;
50225;SDS011;36113;50.742;6.432;2022-07-18T05:21:07;10.43;;;1.23;;
50225;SDS011;36113;50.742;6.432;2022-07-18T05:23:33;1.10;;;0.83;;
50225;SDS011;36113;50.742;6.432;2022-07-18T05:25:58;2.60;;;1.20;;
50225;SDS011;36113;50.742;6.432;2022-07-18T05:28:23;3.20;;;0.97;;
50225;SDS011;36113;50.742;6.432;2022-07-18T05:30:49;5.83;;;1.20;;
50225;SDS011;36113;50.742;6.432;2022-07-18T05:33:14;1.27;;;0.97;;
50225;SDS011;36113;50.742;6.432;2022-07-18T05:35:40;1.60;;;0.70;;
50225;SDS011;36113;50.742;6.432;2022-07-18T05:38:05;2.50;;;0.93;;
50225;SDS011;36113;50.742;6.432;2022-07-18T05:40:31;1.37;;;0.97;;
50225;SDS011;36113;50.742;6.432;2022-07-18T05:42:56;3.00;;;1.23;;
50225;SDS011;36113;50.742;6.432;2022-07-18T05:45:22;1.90;;;1.10;;
50225;SDS011;36113;50.742;6.432;2022-07-18T05:47:49;6.43;;;0.90;;
50225;SDS011;36113;50.742;6.432;2022-07-18T05:50:14;0.70;;;0.70;;
50225;SDS011;36113;50.742;6.432;2022-07-18T05:52:39;1.70;;;1.00;;
50225;SDS011;36113;50.742;6.432;2022-07-18T05:55:05;1.87;;;0.80;;
50225;SDS011;36113;50.742;6.432;2022-07-18T05:57:31;1.85;;;1.23;;
50225;SDS011;36113;50.742;6.432;2022-07-18T05:59:56;2.70;;;1.07;;
50225;SDS011;36113;50.742;6.432;2022-07-18T06:02:21;2.27;;;1.07;;
50225;SDS011;36113;50.742;6.432;2022-07-18T06:04:47;1.43;;;0.80;;
50225;SDS011;36113;50.742;6.432;2022-07-18T06:07:12;1.87;;;1.03;;
50225;SDS011;36113;50.742;6.432;2022-07-18T06:09:37;1.07;;;1.07;;
50225;SDS011;36113;50.742;6.432;2022-07-18T06:12:03;1.23;;;0.77;;
50225;SDS011;36113;50.742;6.432;2022-07-18T06:14:29;2.50;;;0.70;;
50225;SDS011;36113;50.742;6.432;2022-07-18T06:16:57;1.83;;;0.80;;
50225;SDS011;36113;50.742;6.432;2022-07-18T06:19:22;1.08;;;0.75;;
50225;SDS011;36113;50.742;6.432;2022-07-18T06:21:48;2.63;;;1.17;;
50225;SDS011;36113;50.742;6.432;2022-07-18T06:24:14;0.97;;;0.83;;
50225;SDS011;36113;50.742;6.432;2022-07-18T06:26:39;1.47;;;1.10;;
50225;SDS011;36113;50.742;6.432;2022-07-18T06:29:04;1.27;;;0.77;;
50225;SDS011;36113;50.742;6.432;2022-07-18T06:31:30;9.33;;;1.37;;
50225;SDS011;36113;50.742;6.432;2022-07-18T06:33:55;3.27;;;1.03;;
50225;SDS011;36113;50.742;6.432;2022-07-18T06:36:20;1.70;;;1.17;;
50225;SDS011;36113;50.742;6.432;2022-07-18T06:38:49;4.75;;;1.17;;
50225;SDS011;36113;50.742;6.432;2022-07-18T06:41:17;5.13;;;0.93;;
50225;SDS011;36113;50.742;6.432;2022-07-18T06:43:43;2.00;;;0.95;;
50225;SDS011;36113;50.742;6.432;2022-07-18T06:46:08;3.40;;;1.00;;
50225;SDS011;36113;50.742;6.432;2022-07-18T06:48:34;2.17;;;0.87;;
50225;SDS011;36113;50.742;6.432;2022-07-18T06:51:00;1.33;;;0.80;;
50225;SDS011;36113;50.742;6.432;2022-07-18T06:53:27;1.40;;;0.80;;
50225;SDS011;36113;50.742;6.432;2022-07-18T06:55:53;3.00;;;1.02;;
50225;SDS011;36113;50.742;6.432;2022-07-18T06:58:19;1.48;;;0.70;;
50225;SDS011;36113;50.742;6.432;2022-07-18T07:00:45;3.03;;;1.20;;
50225;SDS011;36113;50.742;6.432;2022-07-18T07:03:10;4.83;;;1.10;;
50225;SDS011;36113;50.742;6.432;2022-07-18T07:05:36;2.00;;;0.93;;
50225;SDS011;36113;50.742;6.432;2022-07-18T07:08:01;1.80;;;0.90;;
50225;SDS011;36113;50.742;6.432;2022-07-18T07:10:26;9.70;;;0.93;;
50225;SDS011;36113;50.742;6.432;2022-07-18T07:12:53;0.77;;;0.77;;
50225;SDS011;36113;50.742;6.432;2022-07-18T07:17:44;3.30;;;1.27;;
50225;SDS011;36113;50.742;6.432;2022-07-18T07:20:10;4.63;;;0.90;;
50225;SDS011;36113;50.742;6.432;2022-07-18T07:22:46;1.42;;;0.98;;
50225;SDS011;36113;50.742;6.432;2022-07-18T07:25:13;2.38;;;1.23;;
50225;SDS011;36113;50.742;6.432;2022-07-18T07:27:40;0.90;;;0.90;;
50225;SDS011;36113;50.742;6.432;2022-07-18T07:30:06;4.07;;;0.93;;
50225;SDS011;36113;50.742;6.432;2022-07-18T07:32:36;5.20;;;1.10;;
50225;SDS011;36113;50.742;6.432;2022-07-18T07:35:03;1.17;;;0.90;;
50225;SDS011;36113;50.742;6.432;2022-07-18T07:37:31;0.98;;;0.88;;
50225;SDS011;36113;50.742;6.432;2022-07-18T07:39:57;1.15;;;0.80;;
50225;SDS011;36113;50.742;6.432;2022-07-18T07:42:23;3.28;;;1.20;;
50225;SDS011;36113;50.742;6.432;2022-07-18T07:44:49;10.45;;;1.10;;
50225;SDS011;36113;50.742;6.432;2022-07-18T07:47:14;1.67;;;0.87;;
50225;SDS011;36113;50.742;6.432;2022-07-18T07:49:40;1.70;;;0.87;;
50225;SDS011;36113;50.742;6.432;2022-07-18T07:52:05;1.60;;;1.00;;
50225;SDS011;36113;50.742;6.432;2022-07-18T07:54:30;4.07;;;1.10;;
50225;SDS011;36113;50.742;6.432;2022-07-18T07:56:55;0.80;;;0.80;;
50225;SDS011;36113;50.742;6.432;2022-07-18T07:59:21;1.70;;;0.80;;
50225;SDS011;36113;50.742;6.432;2022-07-18T08:01:46;1.70;;;1.00;;
50225;SDS011;36113;50.742;6.432;2022-07-18T08:04:11;1.60;;;0.80;;
50225;SDS011;36113;50.742;6.432;2022-07-18T08:06:37;0.80;;;0.80;;
50225;SDS011;36113;50.742;6.432;2022-07-18T08:09:02;2.17;;;1.00;;
50225;SDS011;36113;50.742;6.432;2022-07-18T08:11:28;2.58;;;1.02;;
50225;SDS011;36113;50.742;6.432;2022-07-18T08:13:53;3.17;;;1.10;;
50225;SDS011;36113;50.742;6.432;2022-07-18T08:16:19;3.45;;;1.10;;
50225;SDS011;36113;50.742;6.432;2022-07-18T08:18:44;2.13;;;1.00;;
50225;SDS011;36113;50.742;6.432;2022-07-18T08:21:09;1.30;;;1.10;;
50225;SDS011;36113;50.742;6.432;2022-07-18T08:23:35;2.43;;;1.07;;
50225;SDS011;36113;50.742;6.432;2022-07-18T08:26:01;0.60;;;0.60;;
50225;SDS011;36113;50.742;6.432;2022-07-18T08:28:27;2.47;;;0.90;;
50225;SDS011;36113;50.742;6.432;2022-07-18T08:30:52;1.40;;;0.90;;
50225;SDS011;36113;50.742;6.432;2022-07-18T08:33:17;1.77;;;0.90;;
50225;SDS011;36113;50.742;6.432;2022-07-18T08:35:43;2.63;;;0.80;;
50225;SDS011;36113;50.742;6.432;2022-07-18T08:38:08;0.97;;;0.90;;
50225;SDS011;36113;50.742;6.432;2022-07-18T08:40:34;2.37;;;0.90;;
50225;SDS011;36113;50.742;6.432;2022-07-18T08:43:02;5.13;;;0.80;;
50225;SDS011;36113;50.742;6.432;2022-07-18T08:45:27;1.70;;;1.17;;
50225;SDS011;36113;50.742;6.432;2022-07-18T08:47:52;1.80;;;1.10;;
50225;SDS011;36113;50.742;6.432;2022-07-18T08:50:18;2.03;;;0.80;;
50225;SDS011;36113;50.742;6.432;2022-07-18T08:52:44;2.03;;;1.00;;
50225;SDS011;36113;50.742;6.432;2022-07-18T08:55:10;1.15;;;0.77;;
50225;SDS011;36113;50.742;6.432;2022-07-18T08:57:36;2.85;;;0.98;;
50225;SDS011;36113;50.742;6.432;2022-07-18T09:00:03;1.00;;;0.90;;
50225;SDS011;36113;50.742;6.432;2022-07-18T09:02:29;0.82;;;0.70;;
50225;SDS011;36113;50.742;6.432;2022-07-18T09:04:55;1.10;;;0.80;;
50225;SDS011;36113;50.742;6.432;2022-07-18T09:07:24;0.97;;;0.97;;
50225;SDS011;36113;50.742;6.432;2022-07-18T09:09:53;2.25;;;0.88;;
50225;SDS011;36113;50.742;6.432;2022-07-18T09:12:21;2.15;;;0.93;;
50225;SDS011;36113;50.742;6.432;2022-07-18T09:14:47;1.50;;;0.70;;
50225;SDS011;36113;50.742;6.432;2022-07-18T09:17:22;0.95;;;0.90;;
50225;SDS011;36113;50.742;6.432;2022-07-18T09:19:56;1.05;;;0.68;;
50225;SDS011;36113;50.742;6.432;2022-07-18T09:22:23;2.63;;;1.23;;
50225;SDS011;36113;50.742;6.432;2022-07-18T09:27:38;2.63;;;1.05;;
50225;SDS011;36113;50.742;6.432;2022-07-18T09:30:22;1.25;;;1.05;;
50225;SDS011;36113;50.742;6.432;2022-07-18T09:35:32;6.13;;;1.20;;
50225;SDS011;36113;50.742;6.432;2022-07-18T09:38:08;2.38;;;1.35;;
50225;SDS011;36113;50.742;6.432;2022-07-18T09:40:36;1.08;;;0.60;;
50225;SDS011;36113;50.742;6.432;2022-07-18T09:43:03;2.63;;;1.13;;
50225;SDS011;36113;50.742;6.432;2022-07-18T09:45:34;3.03;;;0.90;;
50225;SDS011;36113;50.742;6.432;2022-07-18T09:48:06;2.60;;;1.05;;
50225;SDS011;36113;50.742;6.432;2022-07-18T09:50:36;2.72;;;1.02;;
50225;SDS011;36113;50.742;6.432;2022-07-18T09:56:05;1.70;;;0.88;;
50225;SDS011;36113;50.742;6.432;2022-07-18T09:58:33;1.88;;;0.88;;
50225;SDS011;36113;50.742;6.432;2022-07-18T10:01:04;2.28;;;0.90;;
50225;SDS011;36113;50.742;6.432;2022-07-18T10:03:31;2.75;;;1.20;;
50225;SDS011;36113;50.742;6.432;2022-07-18T10:05:57;1.10;;;1.00;;
50225;SDS011;36113;50.742;6.432;2022-07-18T10:08:24;2.22;;;0.90;;
50225;SDS011;36113;50.742;6.432;2022-07-18T10:10:52;0.98;;;0.90;;
50225;SDS011;36113;50.742;6.432;2022-07-18T10:13:20;1.35;;;1.00;;
50225;SDS011;36113;50.742;6.432;2022-07-18T10:15:47;3.17;;;1.55;;
50225;SDS011;36113;50.742;6.432;2022-07-18T10:18:16;2.97;;;1.27;;
50225;SDS011;36113;50.742;6.432;2022-07-18T10:20:45;1.77;;;0.90;;
50225;SDS011;36113;50.742;6.432;2022-07-18T10:23:16;2.45;;;0.85;;
50225;SDS011;36113;50.742;6.432;2022-07-18T10:25:43;3.45;;;0.90;;
50225;SDS011;36113;50.742;6.432;2022-07-18T10:28:10;2.35;;;1.10;;
50225;SDS011;36113;50.742;6.432;2022-07-18T10:30:44;1.25;;;0.77;;
50225;SDS011;36113;50.742;6.432;2022-07-18T10:36:22;2.55;;;1.30;;
50225;SDS011;36113;50.742;6.432;2022-07-18T10:39:08;1.30;;;0.90;;
50225;SDS011;36113;50.742;6.432;2022-07-18T11:18:19;3.38;;;1.23;;
50225;SDS011;36113;50.742;6.432;2022-07-18T11:20:44;3.90;;;1.02;;
50225;SDS011;36113;50.742;6.432;2022-07-18T11:23:19;4.53;;;1.23;;
50225;SDS011;36113;50.742;6.432;2022-07-18T11:25:50;10.18;;;1.15;;
50225;SDS011;36113;50.742;6.432;2022-07-18T11:28:19;2.08;;;1.27;;
50225;SDS011;36113;50.742;6.432;2022-07-18T11:33:21;2.35;;;1.35;;
50225;SDS011;36113;50.742;6.432;2022-07-18T11:35:49;1.52;;;1.13;;
50225;SDS011;36113;50.742;6.432;2022-07-18T11:40:49;4.18;;;1.25;;
50225;SDS011;36113;50.742;6.432;2022-07-18T11:43:20;1.00;;;1.00;;
50225;SDS011;36113;50.742;6.432;2022-07-18T11:45:58;1.92;;;1.30;;
50225;SDS011;36113;50.742;6.432;2022-07-18T11:48:26;2.50;;;1.05;;
50225;SDS011;36113;50.742;6.432;2022-07-18T11:50:52;1.10;;;1.00;;
50225;SDS011;36113;50.742;6.432;2022-07-18T11:55:43;2.50;;;1.30;;
50225;SDS011;36113;50.742;6.432;2022-07-18T12:00:38;1.10;;;1.10;;
50225;SDS011;36113;50.742;6.432;2022-07-18T12:03:08;1.65;;;1.13;;
50225;SDS011;36113;50.742;6.432;2022-07-18T12:05:37;6.50;;;1.30;;
50225;SDS011;36113;50.742;6.432;2022-07-18T12:13:45;1.20;;;1.10;;
50225;SDS011;36113;50.742;6.432;2022-07-18T12:16:30;1.35;;;1.10;;
50225;SDS011;36113;50.742;6.432;2022-07-18T12:21:40;1.08;;;1.08;;
50225;SDS011;36113;50.742;6.432;2022-07-18T12:27:40;3.08;;;1.55;;
50225;SDS011;36113;50.742;6.432;2022-07-18T12:32:38;1.75;;;1.15;;
50225;SDS011;36113;50.742;6.432;2022-07-18T12:35:08;1.67;;;0.85;;
50225;SDS011;36113;50.742;6.432;2022-07-18T12:37:34;3.38;;;0.88;;
50225;SDS011;36113;50.742;6.432;2022-07-18T12:44:56;4.10;;;1.20;;
50225;SDS011;36113;50.742;6.432;2022-07-18T12:47:23;1.45;;;0.95;;
50225;SDS011;36113;50.742;6.432;2022-07-18T12:52:13;1.20;;;1.10;;
50225;SDS011;36113;50.742;6.432;2022-07-18T12:57:04;3.40;;;1.10;;
50225;SDS011;36113;50.742;6.432;2022-07-18T13:01:54;1.63;;;1.03;;
50225;SDS011;36113;50.742;6.432;2022-07-18T13:06:45;2.43;;;1.20;;
50225;SDS011;36113;50.742;6.432;2022-07-18T13:11:35;1.03;;;1.00;;
50225;SDS011;36113;50.742;6.432;2022-07-18T13:14:02;1.33;;;1.20;;
50225;SDS011;36113;50.742;6.432;2022-07-18T13:16:27;3.95;;;1.13;;
50225;SDS011;36113;50.742;6.432;2022-07-18T13:21:18;4.73;;;1.00;;
50225;SDS011;36113;50.742;6.432;2022-07-18T13:26:09;2.22;;;0.80;;
50225;SDS011;36113;50.742;6.432;2022-07-18T13:30:59;0.97;;;0.97;;
50225;SDS011;36113;50.742;6.432;2022-07-18T13:33:26;2.35;;;1.00;;
50225;SDS011;36113;50.742;6.432;2022-07-18T13:35:51;0.80;;;0.80;;
50225;SDS011;36113;50.742;6.432;2022-07-18T13:40:42;3.27;;;0.93;;
50225;SDS011;36113;50.742;6.432;2022-07-18T13:45:33;2.58;;;1.00;;
50225;SDS011;36113;50.742;6.432;2022-07-18T13:47:58;1.77;;;1.10;;
50225;SDS011;36113;50.742;6.432;2022-07-18T13:52:48;4.73;;;1.00;;
50225;SDS011;36113;50.742;6.432;2022-07-18T13:57:39;2.70;;;1.00;;
50225;SDS011;36113;50.742;6.432;2022-07-18T14:02:33;5.68;;;1.17;;
50225;SDS011;36113;50.742;6.432;2022-07-18T14:04:58;1.75;;;0.88;;
50225;SDS011;36113;50.742;6.432;2022-07-18T14:07:24;1.10;;;1.00;;
50225;SDS011;36113;50.742;6.432;2022-07-18T14:12:15;2.13;;;1.13;;
50225;SDS011;36113;50.742;6.432;2022-07-18T14:14:40;5.10;;;1.20;;
50225;SDS011;36113;50.742;6.432;2022-07-18T14:17:06;3.60;;;1.13;;
50225;SDS011;36113;50.742;6.432;2022-07-18T14:19:31;1.92;;;1.00;;
50225;SDS011;36113;50.742;6.432;2022-07-18T14:24:22;5.60;;;1.50;;
50225;SDS011;36113;50.742;6.432;2022-07-18T14:29:12;5.72;;;1.23;;
50225;SDS011;36113;50.742;6.432;2022-07-18T14:31:38;3.42;;;1.00;;
50225;SDS011;36113;50.742;6.432;2022-07-18T14:34:03;2.47;;;1.25;;
50225;SDS011;36113;50.742;6.432;2022-07-18T14:38:55;1.58;;;0.95;;
50225;SDS011;36113;50.742;6.432;2022-07-18T14:41:21;2.88;;;1.20;;
50225;SDS011;36113;50.742;6.432;2022-07-18T14:46:12;3.30;;;1.53;;
50225;SDS011;36113;50.742;6.432;2022-07-18T14:51:02;1.88;;;1.00;;
50225;SDS011;36113;50.742;6.432;2022-07-18T14:53:29;4.25;;;1.48;;
50225;SDS011;36113;50.742;6.432;2022-07-18T14:55:54;3.25;;;0.98;;
50225;SDS011;36113;50.742;6.432;2022-07-18T15:00:45;0.93;;;0.93;;
50225;SDS011;36113;50.742;6.432;2022-07-18T15:03:11;7.63;;;1.13;;
50225;SDS011;36113;50.742;6.432;2022-07-18T15:05:36;4.53;;;1.42;;
50225;SDS011;36113;50.742;6.432;2022-07-18T15:08:01;2.05;;;1.23;;
50225;SDS011;36113;50.742;6.432;2022-07-18T15:10:27;3.13;;;0.95;;
50225;SDS011;36113;50.742;6.432;2022-07-18T15:12:52;3.97;;;1.50;;
50225;SDS011;36113;50.742;6.432;2022-07-18T15:15:17;2.80;;;1.20;;
50225;SDS011;36113;50.742;6.432;2022-07-18T15:17:43;2.05;;;0.90;;
50225;SDS011;36113;50.742;6.432;2022-07-18T15:20:08;5.03;;;1.20;;
50225;SDS011;36113;50.742;6.432;2022-07-18T15:22:35;5.05;;;1.00;;
50225;SDS011;36113;50.742;6.432;2022-07-18T15:25:01;4.10;;;1.27;;
50225;SDS011;36113;50.742;6.432;2022-07-18T15:27:27;2.53;;;1.10;;
50225;SDS011;36113;50.742;6.432;2022-07-18T15:29:52;4.05;;;1.10;;
50225;SDS011;36113;50.742;6.432;2022-07-18T15:32:18;6.28;;;1.10;;
50225;SDS011;36113;50.742;6.432;2022-07-18T15:34:43;7.30;;;1.50;;
50225;SDS011;36113;50.742;6.432;2022-07-18T15:37:08;25.65;;;3.33;;
50225;SDS011;36113;50.742;6.432;2022-07-18T15:39:34;3.20;;;0.75;;
50225;SDS011;36113;50.742;6.432;2022-07-18T15:41:59;8.90;;;1.40;;
50225;SDS011;36113;50.742;6.432;2022-07-18T15:44:25;3.38;;;1.10;;
50225;SDS011;36113;50.742;6.432;2022-07-18T15:46:51;6.07;;;1.05;;
50225;SDS011;36113;50.742;6.432;2022-07-18T15:49:17;5.63;;;1.17;;
50225;SDS011;36113;50.742;6.432;2022-07-18T15:51:43;1.25;;;1.00;;
50225;SDS011;36113;50.742;6.432;2022-07-18T15:54:11;4.88;;;0.90;;
50225;SDS011;36113;50.742;6.432;2022-07-18T15:56:37;3.70;;;1.17;;
50225;SDS011;36113;50.742;6.432;2022-07-18T15:59:03;7.88;;;1.52;;
50225;SDS011;36113;50.742;6.432;2022-07-18T16:01:28;2.92;;;1.30;;
50225;SDS011;36113;50.742;6.432;2022-07-18T16:03:53;1.33;;;0.80;;
50225;SDS011;36113;50.742;6.432;2022-07-18T16:06:19;4.80;;;1.30;;
50225;SDS011;36113;50.742;6.432;2022-07-18T16:08:44;1.45;;;1.13;;
50225;SDS011;36113;50.742;6.432;2022-07-18T16:13:36;4.00;;;1.33;;
50225;SDS011;36113;50.742;6.432;2022-07-18T16:16:01;1.50;;;1.10;;
50225;SDS011;36113;50.742;6.432;2022-07-18T16:20:52;6.60;;;1.40;;
50225;SDS011;36113;50.742;6.432;2022-07-18T16:25:42;1.17;;;1.10;;
50225;SDS011;36113;50.742;6.432;2022-07-18T16:30:33;6.43;;;0.93;;
50225;SDS011;36113;50.742;6.432;2022-07-18T16:35:24;2.17;;;1.15;;
50225;SDS011;36113;50.742;6.432;2022-07-18T16:37:50;9.20;;;2.10;;
50225;SDS011;36113;50.742;6.432;2022-07-18T16:40:15;2.38;;;0.88;;
50225;SDS011;36113;50.742;6.432;2022-07-18T16:42:41;2.50;;;1.50;;
50225;SDS011;36113;50.742;6.432;2022-07-18T16:45:07;2.17;;;1.25;;
50225;SDS011;36113;50.742;6.432;2022-07-18T16:47:33;3.92;;;1.23;;
50225;SDS011;36113;50.742;6.432;2022-07-18T16:49:59;1.88;;;1.02;;
50225;SDS011;36113;50.742;6.432;2022-07-18T16:52:25;5.80;;;1.30;;
50225;SDS011;36113;50.742;6.432;2022-07-18T16:54:51;1.17;;;1.08;;
50225;SDS011;36113;50.742;6.432;2022-07-18T16:57:17;3.45;;;1.00;;
50225;SDS011;36113;50.742;6.432;2022-07-18T16:59:43;2.38;;;0.95;;
50225;SDS011;36113;50.742;6.432;2022-07-18T17:02:09;3.65;;;1.30;;
50225;SDS011;36113;50.742;6.432;2022-07-18T17:04:35;4.97;;;1.00;;
50225;SDS011;36113;50.742;6.432;2022-07-18T17:07:00;2.83;;;1.33;;
50225;SDS011;36113;50.742;6.432;2022-07-18T17:09:26;2.78;;;1.25;;
50225;SDS011;36113;50.742;6.432;2022-07-18T17:11:52;1.48;;;1.00;;